Time;durP1;ratioP1;P1;durP2;ratioP2;P2;SDS_P1;SDS_P2;PMS_P1;PMS_P2;Temp;Humidity;BMP_temperature;BMP_pressure;BME280_temperature;BME280_humidity;BME280_pressure;Samples;Min_cycle;Max_cycle;Signal;HPM_P1;HPM_P2
2021/08/07 00:00:29;;;;;;;0.10;0.10;;;;;;;;;;6189319;23;20024;-89
2021/08/07 00:02:55;;;;;;;0.10;0.10;;;;;;;;;;6189208;23;20135;-89
2021/08/07 00:05:21;;;;;;;0.30;0.30;;;;;;;;;;6189101;23;20438;-91
2021/08/07 00:07:47;;;;;;;0.10;0.10;;;;;;;;;;6188696;23;20028;-90
2021/08/07 00:10:13;;;;;;;0.10;0.10;;;;;;;;;;6188870;23;20009;-89
2021/08/07 00:12:39;;;;;;;0.10;0.10;;;;;;;;;;6188867;23;20017;-89
2021/08/07 00:15:06;;;;;;;0.10;0.10;;;;;;;;;;6189086;23;20465;-89
2021/08/07 00:17:32;;;;;;;0.20;0.20;;;;;;;;;;6188976;23;20013;-88
2021/08/07 00:19:58;;;;;;;0.10;0.10;;;;;;;;;;6188592;23;20020;-89
2021/08/07 00:22:24;;;;;;;0.10;0.10;;;;;;;;;;6188955;23;20009;-88
2021/08/07 00:24:50;;;;;;;0.10;0.10;;;;;;;;;;6188958;23;20012;-89
2021/08/07 00:27:16;;;;;;;0.20;0.20;;;;;;;;;;6188790;23;20088;-89
2021/08/07 00:29:42;;;;;;;0.10;0.10;;;;;;;;;;6188966;23;20040;-89
2021/08/07 00:32:08;;;;;;;0.10;0.10;;;;;;;;;;6188600;23;20021;-89
2021/08/07 00:34:34;;;;;;;0.10;0.10;;;;;;;;;;6188661;23;20070;-89
2021/08/07 00:37:04;;;;;;;0.10;0.10;;;;;;;;;;6188155;23;20150;-90
2021/08/07 00:39:30;;;;;;;0.10;0.10;;;;;;;;;;6188719;23;20019;-88
2021/08/07 00:41:56;;;;;;;0.10;0.10;;;;;;;;;;6188799;23;20008;-89
2021/08/07 00:44:22;;;;;;;0.10;0.10;;;;;;;;;;6188447;23;20017;-88
2021/08/07 00:46:48;;;;;;;0.10;0.10;;;;;;;;;;6188219;23;20016;-90
2021/08/07 00:49:15;;;;;;;0.20;0.20;;;;;;;;;;6188707;23;20154;-88
2021/08/07 00:51:41;;;;;;;0.10;0.10;;;;;;;;;;6163577;23;20016;-89
2021/08/07 00:54:08;;;;;;;0.10;0.10;;;;;;;;;;6188716;23;20020;-90
2021/08/07 00:56:34;;;;;;;0.10;0.10;;;;;;;;;;6163654;23;20013;-89
2021/08/07 00:59:00;;;;;;;0.10;0.10;;;;;;;;;;6188643;23;20008;-89
2021/08/07 01:01:28;;;;;;;0.20;0.20;;;;;;;;;;6188244;23;20020;-89
2021/08/07 01:03:55;;;;;;;0.20;0.20;;;;;;;;;;6188493;23;20035;-89
2021/08/07 01:06:25;;;;;;;0.20;0.20;;;;;;;;;;6188262;23;20020;-88
2021/08/07 01:09:15;;;;;;;0.10;0.10;;;;;;;;;;6213141;23;20012;-89
2021/08/07 01:11:41;;;;;;;0.10;0.10;;;;;;;;;;6147946;23;20443;-88
2021/08/07 01:14:07;;;;;;;0.10;0.10;;;;;;;;;;6214848;23;20504;-88
2021/08/07 01:16:35;;;;;;;0.10;0.10;;;;;;;;;;6188638;23;20020;-89
2021/08/07 01:19:01;;;;;;;0.10;0.10;;;;;;;;;;6214572;23;20393;-89
2021/08/07 01:21:28;;;;;;;0.10;0.10;;;;;;;;;;6188165;23;20527;-89
2021/08/07 01:23:57;;;;;;;0.10;0.10;;;;;;;;;;6188199;23;20458;-89
2021/08/07 01:26:32;;;;;;;0.10;0.10;;;;;;;;;;6188069;23;20036;-89
2021/08/07 01:28:58;;;;;;;0.10;0.10;;;;;;;;;;6212986;23;20079;-89
2021/08/07 01:31:24;;;;;;;0.10;0.10;;;;;;;;;;6188555;23;20040;-89
2021/08/07 01:33:50;;;;;;;0.10;0.10;;;;;;;;;;6187948;23;20012;-88
2021/08/07 01:36:17;;;;;;;0.10;0.10;;;;;;;;;;6188233;23;20024;-88
2021/08/07 01:38:46;;;;;;;0.10;0.10;;;;;;;;;;6214241;23;20019;-89
2021/08/07 01:41:21;;;;;;;0.20;0.20;;;;;;;;;;6188253;23;20012;-88
2021/08/07 01:43:47;;;;;;;0.10;0.10;;;;;;;;;;6188367;23;20136;-88
2021/08/07 01:46:15;;;;;;;0.10;0.10;;;;;;;;;;6188084;23;20071;-88
2021/08/07 01:48:45;;;;;;;0.50;0.50;;;;;;;;;;6187795;23;20084;-88
2021/08/07 01:51:12;;;;;;;0.20;0.20;;;;;;;;;;6214399;23;20063;-89
2021/08/07 01:53:38;;;;;;;0.10;0.10;;;;;;;;;;6188133;23;20087;-89
2021/08/07 01:56:21;;;;;;;0.10;0.10;;;;;;;;;;6188244;23;20023;-88
2021/08/07 01:58:49;;;;;;;0.10;0.10;;;;;;;;;;6187753;23;20044;-89
2021/08/07 02:01:18;;;;;;;0.10;0.10;;;;;;;;;;6198884;23;20362;-89
2021/08/07 02:03:44;;;;;;;0.20;0.20;;;;;;;;;;6188083;23;20009;-88
2021/08/07 02:06:10;;;;;;;0.30;0.30;;;;;;;;;;6163080;23;20012;-90
2021/08/07 02:08:37;;;;;;;0.10;0.10;;;;;;;;;;6188258;23;20482;-90
2021/08/07 02:11:03;;;;;;;0.10;0.10;;;;;;;;;;6187933;23;20059;-88
2021/08/07 02:13:29;;;;;;;0.10;0.10;;;;;;;;;;6187899;23;20465;-89
2021/08/07 02:15:55;;;;;;;0.10;0.10;;;;;;;;;;6188259;23;20082;-88
2021/08/07 02:18:22;;;;;;;0.10;0.10;;;;;;;;;;6187779;23;20438;-89
2021/08/07 02:20:48;;;;;;;0.10;0.10;;;;;;;;;;6212834;23;20009;-89
2021/08/07 02:23:16;;;;;;;0.10;0.10;;;;;;;;;;6163484;23;20028;-89
2021/08/07 02:25:43;;;;;;;0.10;0.10;;;;;;;;;;6187843;23;20008;-88
2021/08/07 02:28:10;;;;;;;0.10;0.10;;;;;;;;;;6188238;23;20085;-89
2021/08/07 02:30:36;;;;;;;0.10;0.10;;;;;;;;;;6187944;23;20013;-88
2021/08/07 02:33:02;;;;;;;0.10;0.10;;;;;;;;;;6188283;23;20082;-91
2021/08/07 02:35:28;;;;;;;0.10;0.10;;;;;;;;;;6187661;23;20013;-90
2021/08/07 02:37:54;;;;;;;0.10;0.10;;;;;;;;;;6188171;23;20364;-91
2021/08/07 02:40:20;;;;;;;0.10;0.10;;;;;;;;;;6188661;23;20020;-92
2021/08/07 02:42:46;;;;;;;0.13;0.13;;;;;;;;;;6189882;23;20015;-94
2021/08/07 02:45:12;;;;;;;0.10;0.10;;;;;;;;;;6163507;23;20015;-88
2021/08/07 02:47:38;;;;;;;0.10;0.10;;;;;;;;;;6187641;23;20096;-88
2021/08/07 02:50:05;;;;;;;0.10;0.10;;;;;;;;;;6187870;23;20016;-89
2021/08/07 02:52:31;;;;;;;0.13;0.13;;;;;;;;;;6188010;23;20450;-89
2021/08/07 02:54:57;;;;;;;0.10;0.10;;;;;;;;;;6187561;23;20016;-89
2021/08/07 02:57:25;;;;;;;0.10;0.10;;;;;;;;;;6188091;23;20044;-89
2021/08/07 02:59:51;;;;;;;0.10;0.10;;;;;;;;;;6187716;23;20021;-89
2021/08/07 03:02:17;;;;;;;0.10;0.10;;;;;;;;;;6188903;23;20028;-89
2021/08/07 03:04:43;;;;;;;0.10;0.10;;;;;;;;;;6189808;23;20009;-88
2021/08/07 03:07:09;;;;;;;0.10;0.10;;;;;;;;;;6189530;23;20020;-88
2021/08/07 03:09:36;;;;;;;0.10;0.10;;;;;;;;;;6189800;23;20013;-88
2021/08/07 03:12:02;;;;;;;0.10;0.10;;;;;;;;;;6189336;23;20438;-88
2021/08/07 03:14:29;;;;;;;0.10;0.10;;;;;;;;;;6189729;23;20016;-90
2021/08/07 03:16:55;;;;;;;0.10;0.10;;;;;;;;;;6189601;23;20012;-88
2021/08/07 03:19:21;;;;;;;0.10;0.10;;;;;;;;;;6189744;23;20076;-88
2021/08/07 03:21:47;;;;;;;0.10;0.10;;;;;;;;;;6189588;23;20335;-88
2021/08/07 03:24:13;;;;;;;0.10;0.10;;;;;;;;;;6189760;23;20008;-89
2021/08/07 03:26:39;;;;;;;0.20;0.20;;;;;;;;;;6189247;23;20020;-89
2021/08/07 03:29:06;;;;;;;0.10;0.10;;;;;;;;;;6189567;23;20075;-88
2021/08/07 03:31:34;;;;;;;0.10;0.10;;;;;;;;;;6189519;23;20009;-88
2021/08/07 03:34:00;;;;;;;0.10;0.10;;;;;;;;;;6189158;23;20016;-88
2021/08/07 03:36:26;;;;;;;0.20;0.20;;;;;;;;;;6189268;23;20016;-88
2021/08/07 03:38:52;;;;;;;0.10;0.10;;;;;;;;;;6189112;23;20076;-89
2021/08/07 03:41:19;;;;;;;0.10;0.10;;;;;;;;;;6189329;23;20099;-88
2021/08/07 03:43:45;;;;;;;0.20;0.20;;;;;;;;;;6189139;23;20020;-89
2021/08/07 03:46:11;;;;;;;0.10;0.10;;;;;;;;;;6189180;23;20075;-89
2021/08/07 03:48:37;;;;;;;0.10;0.10;;;;;;;;;;6189200;23;20040;-88
2021/08/07 03:51:04;;;;;;;0.10;0.10;;;;;;;;;;6189408;23;20036;-88
2021/08/07 03:53:30;;;;;;;0.10;0.10;;;;;;;;;;6189270;23;20088;-89
2021/08/07 03:55:56;;;;;;;0.10;0.10;;;;;;;;;;6189315;23;20016;-89
2021/08/07 03:58:24;;;;;;;0.10;0.10;;;;;;;;;;6189342;23;20017;-89
2021/08/07 04:00:50;;;;;;;0.10;0.10;;;;;;;;;;6213567;23;20454;-88
2021/08/07 04:03:16;;;;;;;0.10;0.10;;;;;;;;;;6189249;23;20008;-88
2021/08/07 04:05:42;;;;;;;0.10;0.10;;;;;;;;;;6189081;23;20020;-88
2021/08/07 04:08:11;;;;;;;0.10;0.10;;;;;;;;;;6189067;23;20017;-88
2021/08/07 04:10:37;;;;;;;0.10;0.10;;;;;;;;;;6189471;23;20028;-89
2021/08/07 04:13:04;;;;;;;0.10;0.10;;;;;;;;;;6188605;23;20009;-89
2021/08/07 04:15:30;;;;;;;0.20;0.20;;;;;;;;;;6215147;23;20350;-88
2021/08/07 04:17:56;;;;;;;0.10;0.10;;;;;;;;;;6188702;23;20009;-88
2021/08/07 04:20:22;;;;;;;0.10;0.10;;;;;;;;;;6189099;23;20023;-88
2021/08/07 04:22:48;;;;;;;0.10;0.10;;;;;;;;;;6189310;23;20069;-88
2021/08/07 04:25:14;;;;;;;0.10;0.10;;;;;;;;;;6189184;23;20435;-88
2021/08/07 04:27:40;;;;;;;0.10;0.10;;;;;;;;;;6188417;23;20015;-89
2021/08/07 04:30:07;;;;;;;0.10;0.10;;;;;;;;;;6188831;23;20092;-89
2021/08/07 04:32:33;;;;;;;0.10;0.10;;;;;;;;;;6213470;23;20447;-89
2021/08/07 04:34:59;;;;;;;0.10;0.10;;;;;;;;;;6188635;23;20009;-89
2021/08/07 04:37:25;;;;;;;0.10;0.10;;;;;;;;;;6188519;23;20031;-88
2021/08/07 04:39:51;;;;;;;0.10;0.10;;;;;;;;;;6188878;23;20462;-90
2021/08/07 04:42:17;;;;;;;0.10;0.10;;;;;;;;;;6189205;23;20009;-90
2021/08/07 04:44:43;;;;;;;0.10;0.10;;;;;;;;;;6188969;23;20036;-90
2021/08/07 04:47:09;;;;;;;0.10;0.10;;;;;;;;;;6188522;23;20516;-89
2021/08/07 04:49:35;;;;;;;0.10;0.10;;;;;;;;;;6188472;23;20028;-89
2021/08/07 04:52:01;;;;;;;0.10;0.10;;;;;;;;;;6188456;23;20008;-88
2021/08/07 04:54:27;;;;;;;0.10;0.10;;;;;;;;;;6213446;23;20012;-90
2021/08/07 04:56:53;;;;;;;0.10;0.10;;;;;;;;;;6188153;23;20112;-89
2021/08/07 04:59:21;;;;;;;0.10;0.10;;;;;;;;;;6163874;23;20024;-89
2021/08/07 05:01:47;;;;;;;0.10;0.10;;;;;;;;;;6164204;23;20021;-91
2021/08/07 05:04:13;;;;;;;0.10;0.10;;;;;;;;;;6189726;23;20494;-91
2021/08/07 05:06:39;;;;;;;0.10;0.10;;;;;;;;;;6188246;23;20079;-90
2021/08/07 05:09:06;;;;;;;0.10;0.10;;;;;;;;;;6188702;23;20454;-89
2021/08/07 05:11:32;;;;;;;0.20;0.20;;;;;;;;;;6214508;23;20080;-89
2021/08/07 05:13:58;;;;;;;0.10;0.10;;;;;;;;;;6188636;23;20443;-89
2021/08/07 05:16:24;;;;;;;0.10;0.10;;;;;;;;;;6188353;23;20016;-89
2021/08/07 05:18:50;;;;;;;0.10;0.10;;;;;;;;;;6188654;23;20013;-88
2021/08/07 05:21:16;;;;;;;0.10;0.10;;;;;;;;;;6188146;23;20465;-89
2021/08/07 05:23:42;;;;;;;0.10;0.10;;;;;;;;;;6187796;23;20005;-90
2021/08/07 05:26:08;;;;;;;0.10;0.10;;;;;;;;;;6188421;23;20469;-89
2021/08/07 05:28:34;;;;;;;0.10;0.10;;;;;;;;;;6188582;23;20005;-89
2021/08/07 05:31:00;;;;;;;0.10;0.10;;;;;;;;;;6188481;23;20023;-91
2021/08/07 05:33:26;;;;;;;0.10;0.10;;;;;;;;;;6189049;23;20037;-92
2021/08/07 05:35:52;;;;;;;0.10;0.10;;;;;;;;;;6188863;23;20462;-92
2021/08/07 05:38:18;;;;;;;0.10;0.10;;;;;;;;;;6189409;23;20500;-91
2021/08/07 05:40:45;;;;;;;0.10;0.10;;;;;;;;;;6189032;23;20005;-93
2021/08/07 05:43:11;;;;;;;0.10;0.10;;;;;;;;;;6164173;23;20461;-91
2021/08/07 05:45:37;;;;;;;0.20;0.20;;;;;;;;;;6188615;23;20511;-91
2021/08/07 05:48:03;;;;;;;0.10;0.10;;;;;;;;;;6188465;23;20012;-90
2021/08/07 05:50:29;;;;;;;0.10;0.10;;;;;;;;;;6189074;23;20059;-90
2021/08/07 05:52:55;;;;;;;0.10;0.10;;;;;;;;;;6188341;23;20040;-91
2021/08/07 05:55:21;;;;;;;0.10;0.10;;;;;;;;;;6188361;23;20151;-91
2021/08/07 05:57:47;;;;;;;0.10;0.10;;;;;;;;;;6188121;23;20012;-89
2021/08/07 06:00:20;;;;;;;;;;;;;;;;;;6199905;23;20086;-90
2021/08/07 06:02:46;;;;;;;0.10;0.10;;;;;;;;;;6187401;23;19919;-89
2021/08/07 06:05:12;;;;;;;0.10;0.10;;;;;;;;;;6187760;23;20083;-89
2021/08/07 06:07:38;;;;;;;0.10;0.10;;;;;;;;;;6187947;23;20036;-89
2021/08/07 06:10:04;;;;;;;0.10;0.10;;;;;;;;;;6187615;23;20450;-89
2021/08/07 06:12:30;;;;;;;0.10;0.10;;;;;;;;;;6188239;23;20040;-90
2021/08/07 06:14:56;;;;;;;0.10;0.10;;;;;;;;;;6188122;23;20079;-91
2021/08/07 06:17:22;;;;;;;0.10;0.10;;;;;;;;;;6187925;23;20023;-91
2021/08/07 06:19:48;;;;;;;0.10;0.10;;;;;;;;;;6188442;23;20067;-91
2021/08/07 06:22:14;;;;;;;0.20;0.20;;;;;;;;;;6190737;23;20017;-92
2021/08/07 06:24:40;;;;;;;0.10;0.10;;;;;;;;;;6189193;23;20319;-90
2021/08/07 06:27:06;;;;;;;0.10;0.10;;;;;;;;;;6187439;23;20035;-89
2021/08/07 06:29:32;;;;;;;0.10;0.10;;;;;;;;;;6187896;23;20044;-88
2021/08/07 06:31:58;;;;;;;0.10;0.10;;;;;;;;;;6187876;23;20016;-89
2021/08/07 06:34:33;;;;;;;0.25;0.25;;;;;;;;;;6195627;23;20016;-95
2021/08/07 06:37:01;;;;;;;0.13;0.13;;;;;;;;;;6133972;23;20072;-93
2021/08/07 06:39:27;;;;;;;0.10;0.10;;;;;;;;;;6134646;23;20009;-91
2021/08/07 06:41:53;;;;;;;0.10;0.10;;;;;;;;;;6134673;23;20026;-89
2021/08/07 06:44:19;;;;;;;0.20;0.20;;;;;;;;;;6159471;23;20013;-89
2021/08/07 06:46:45;;;;;;;0.10;0.10;;;;;;;;;;6134732;23;20013;-89
2021/08/07 06:49:11;;;;;;;0.10;0.10;;;;;;;;;;6159722;23;20443;-89
2021/08/07 06:51:37;;;;;;;0.25;0.25;;;;;;;;;;6134523;23;20044;-89
2021/08/07 06:54:03;;;;;;;0.10;0.10;;;;;;;;;;6159808;23;20013;-89
2021/08/07 06:56:29;;;;;;;1.48;0.85;;;;;;;;;;6135008;23;20074;-90
2021/08/07 06:58:55;;;;;;;0.10;0.10;;;;;;;;;;6135335;23;20092;-90
2021/08/07 07:01:22;;;;;;;0.10;0.10;;;;;;;;;;6160033;23;20017;-89
2021/08/07 07:03:48;;;;;;;0.10;0.10;;;;;;;;;;6137048;23;20012;-91
2021/08/07 07:06:14;;;;;;;0.20;0.20;;;;;;;;;;6164593;23;20013;-95
2021/08/07 07:08:40;;;;;;;1.65;1.15;;;;;;;;;;6135201;23;20443;-90
2021/08/07 07:11:06;;;;;;;0.10;0.10;;;;;;;;;;6135238;23;20420;-90
2021/08/07 07:13:32;;;;;;;0.10;0.10;;;;;;;;;;6159662;23;20009;-90
2021/08/07 07:15:59;;;;;;;0.10;0.10;;;;;;;;;;6186246;23;20021;-89
2021/08/07 07:18:25;;;;;;;0.10;0.10;;;;;;;;;;6184267;23;20021;-90
2021/08/07 07:20:51;;;;;;;0.10;0.10;;;;;;;;;;6135230;23;20039;-90
2021/08/07 07:23:17;;;;;;;0.10;0.10;;;;;;;;;;6110450;23;20009;-90
2021/08/07 07:25:43;;;;;;;0.10;0.10;;;;;;;;;;6135092;23;20439;-90
2021/08/07 07:28:09;;;;;;;0.10;0.10;;;;;;;;;;6159400;23;20343;-90
2021/08/07 07:30:35;;;;;;;0.10;0.10;;;;;;;;;;6184347;23;20455;-90
2021/08/07 07:33:01;;;;;;;0.10;0.10;;;;;;;;;;6160073;23;20066;-90
2021/08/07 07:35:27;;;;;;;0.10;0.10;;;;;;;;;;6146271;23;20459;-90
2021/08/07 07:37:53;;;;;;;0.10;0.10;;;;;;;;;;6189329;23;20090;-87
2021/08/07 07:40:19;;;;;;;0.10;0.10;;;;;;;;;;6215715;23;20439;-91
2021/08/07 07:42:45;;;;;;;0.10;0.10;;;;;;;;;;6190065;23;20048;-93
2021/08/07 07:45:11;;;;;;;0.10;0.10;;;;;;;;;;6188911;23;20015;-89
2021/08/07 07:47:37;;;;;;;0.20;0.20;;;;;;;;;;6214861;23;20019;-89
2021/08/07 07:50:04;;;;;;;0.10;0.10;;;;;;;;;;6188880;23;20013;-89
2021/08/07 07:52:30;;;;;;;0.10;0.10;;;;;;;;;;6189204;23;20346;-89
2021/08/07 07:54:56;;;;;;;0.10;0.10;;;;;;;;;;6188738;23;20019;-90
2021/08/07 07:57:22;;;;;;;0.10;0.10;;;;;;;;;;6188556;23;20443;-90
2021/08/07 07:59:48;;;;;;;0.10;0.10;;;;;;;;;;6188861;23;20378;-91
2021/08/07 08:02:15;;;;;;;0.20;0.20;;;;;;;;;;6188997;23;20012;-90
2021/08/07 08:04:41;;;;;;;0.10;0.10;;;;;;;;;;6188575;23;20036;-89
2021/08/07 08:07:07;;;;;;;0.10;0.10;;;;;;;;;;6188727;23;20340;-88
2021/08/07 08:09:33;;;;;;;0.10;0.10;;;;;;;;;;6188457;23;20012;-88
2021/08/07 08:11:59;;;;;;;0.10;0.10;;;;;;;;;;6188587;23;20438;-89
2021/08/07 08:14:25;;;;;;;0.10;0.10;;;;;;;;;;6188560;23;20094;-89
2021/08/07 08:16:51;;;;;;;0.10;0.10;;;;;;;;;;6188156;23;20016;-90
2021/08/07 08:19:17;;;;;;;0.10;0.10;;;;;;;;;;6163298;23;20071;-90
2021/08/07 08:21:43;;;;;;;1.65;0.95;;;;;;;;;;6188654;23;20012;-89
2021/08/07 08:24:09;;;;;;;0.10;0.10;;;;;;;;;;6188659;23;20058;-90
2021/08/07 08:26:35;;;;;;;0.20;0.20;;;;;;;;;;6188388;23;20163;-89
2021/08/07 08:29:01;;;;;;;0.10;0.10;;;;;;;;;;6188645;23;20086;-90
2021/08/07 08:31:27;;;;;;;0.20;0.20;;;;;;;;;;6188298;23;20017;-90
2021/08/07 08:33:53;;;;;;;0.10;0.10;;;;;;;;;;6192350;23;20047;-89
2021/08/07 08:36:19;;;;;;;0.10;0.10;;;;;;;;;;6163153;23;20043;-90
2021/08/07 08:38:45;;;;;;;0.10;0.10;;;;;;;;;;6188404;23;20070;-90
2021/08/07 08:41:11;;;;;;;0.15;0.15;;;;;;;;;;6188694;23;20009;-90
2021/08/07 08:43:38;;;;;;;0.10;0.10;;;;;;;;;;6188653;23;20546;-90
2021/08/07 08:46:04;;;;;;;0.10;0.10;;;;;;;;;;6188793;23;20016;-91
2021/08/07 08:48:30;;;;;;;0.10;0.10;;;;;;;;;;6188266;23;20012;-90
2021/08/07 08:50:56;;;;;;;0.10;0.10;;;;;;;;;;6188613;23;20067;-91
2021/08/07 08:53:22;;;;;;;0.10;0.10;;;;;;;;;;6190093;23;20056;-95
2021/08/07 08:55:49;;;;;;;0.10;0.10;;;;;;;;;;6165486;23;20008;-94
2021/08/07 08:58:16;;;;;;;0.10;0.10;;;;;;;;;;6188378;23;20009;-89
2021/08/07 09:00:42;;;;;;;0.20;0.20;;;;;;;;;;6188557;23;20012;-90
2021/08/07 09:03:09;;;;;;;0.10;0.10;;;;;;;;;;6188429;23;20043;-90
2021/08/07 09:05:36;;;;;;;0.10;0.10;;;;;;;;;;6188316;23;20008;-89
2021/08/07 09:08:02;;;;;;;0.13;0.13;;;;;;;;;;6188408;23;20328;-89
2021/08/07 09:10:28;;;;;;;0.20;0.20;;;;;;;;;;6187952;23;20044;-89
2021/08/07 09:12:55;;;;;;;0.15;0.15;;;;;;;;;;6188131;23;20013;-88
2021/08/07 09:15:24;;;;;;;0.20;0.20;;;;;;;;;;6188393;23;20036;-88
2021/08/07 09:17:50;;;;;;;0.20;0.20;;;;;;;;;;6212981;23;20031;-86
2021/08/07 09:20:26;;;;;;;1.45;0.20;;;;;;;;;;6214754;23;20324;-87
2021/08/07 09:22:52;;;;;;;0.20;0.20;;;;;;;;;;6214585;23;20012;-86
2021/08/07 09:25:23;;;;;;;0.20;0.20;;;;;;;;;;6188221;23;20429;-85
2021/08/07 09:27:50;;;;;;;0.20;0.20;;;;;;;;;;6193207;23;20009;-84
2021/08/07 09:30:19;;;;;;;0.20;0.20;;;;;;;;;;6188235;23;20062;-86
2021/08/07 09:32:55;;;;;;;0.20;0.20;;;;;;;;;;6214649;23;20032;-84
2021/08/07 09:35:43;;;;;;;0.20;0.20;;;;;;;;;;6187799;23;20012;-84
2021/08/07 09:38:20;;;;;;;0.20;0.20;;;;;;;;;;6188274;23;20021;-86
2021/08/07 09:40:49;;;;;;;0.20;0.20;;;;;;;;;;6188201;23;20008;-84
2021/08/07 09:43:17;;;;;;;0.20;0.20;;;;;;;;;;6214484;23;20462;-84
2021/08/07 09:45:43;;;;;;;0.20;0.20;;;;;;;;;;6214259;23;20016;-85
2021/08/07 09:48:15;;;;;;;0.20;0.20;;;;;;;;;;6187836;23;20318;-85
2021/08/07 09:50:41;;;;;;;0.20;0.20;;;;;;;;;;6188267;23;20013;-85
2021/08/07 09:53:18;;;;;;;0.20;0.20;;;;;;;;;;6188046;23;20017;-85
2021/08/07 09:55:57;;;;;;;0.20;0.20;;;;;;;;;;6197649;23;20017;-83
2021/08/07 09:58:23;;;;;;;0.20;0.20;;;;;;;;;;6189627;23;20156;-85
2021/08/07 10:00:49;;;;;;;0.20;0.20;;;;;;;;;;6187913;23;20405;-84
2021/08/07 10:03:20;;;;;;;0.20;0.20;;;;;;;;;;6214711;23;20012;-85
2021/08/07 10:05:47;;;;;;;0.20;0.20;;;;;;;;;;6187721;23;20322;-83
2021/08/07 10:08:13;;;;;;;0.20;0.20;;;;;;;;;;6187430;23;20021;-84
2021/08/07 10:10:39;;;;;;;0.20;0.20;;;;;;;;;;6189009;23;20036;-87
2021/08/07 10:13:07;;;;;;;0.20;0.20;;;;;;;;;;6190129;23;20009;-88
2021/08/07 10:15:33;;;;;;;0.20;0.20;;;;;;;;;;6190778;23;20016;-87
2021/08/07 10:18:00;;;;;;;0.20;0.20;;;;;;;;;;6191519;23;20047;-85
2021/08/07 10:20:26;;;;;;;0.20;0.20;;;;;;;;;;6217574;23;20036;-87
2021/08/07 10:22:52;;;;;;;0.20;0.20;;;;;;;;;;6189782;23;20008;-87
2021/08/07 10:25:19;;;;;;;0.20;0.20;;;;;;;;;;6189669;23;20019;-85
2021/08/07 10:27:44;;;;;;;0.20;0.20;;;;;;;;;;6189551;23;20032;-86
2021/08/07 10:30:11;;;;;;;0.20;0.20;;;;;;;;;;6216082;23;20070;-86
2021/08/07 10:32:41;;;;;;;0.20;0.20;;;;;;;;;;6215935;23;20017;-85
2021/08/07 10:35:07;;;;;;;0.20;0.20;;;;;;;;;;6189409;23;20089;-84
2021/08/07 10:37:33;;;;;;;0.20;0.20;;;;;;;;;;6159635;23;20021;-84
2021/08/07 10:39:59;;;;;;;0.20;0.20;;;;;;;;;;6159621;23;20059;-84
2021/08/07 10:42:25;;;;;;;0.20;0.20;;;;;;;;;;6185407;23;20024;-84
2021/08/07 10:44:51;;;;;;;0.20;0.20;;;;;;;;;;6159535;23;20020;-84
2021/08/07 10:47:33;;;;;;;0.20;0.20;;;;;;;;;;6159514;23;20036;-84
2021/08/07 10:49:59;;;;;;;0.20;0.20;;;;;;;;;;6169352;23;20399;-85
2021/08/07 10:52:28;;;;;;;0.17;0.17;;;;;;;;;;6185756;23;20558;-84
2021/08/07 10:54:55;;;;;;;0.20;0.20;;;;;;;;;;6184507;23;20013;-84
2021/08/07 10:57:37;;;;;;;0.20;0.20;;;;;;;;;;6159328;23;20023;-84
2021/08/07 11:00:15;;;;;;;0.20;0.20;;;;;;;;;;6185629;23;20017;-84
2021/08/07 11:02:41;;;;;;;0.20;0.20;;;;;;;;;;6184111;23;20020;-83
2021/08/07 11:05:09;;;;;;;0.20;0.20;;;;;;;;;;6159884;23;20017;-84
2021/08/07 11:07:35;;;;;;;0.20;0.20;;;;;;;;;;6184027;23;20347;-83
2021/08/07 11:10:11;;;;;;;0.20;0.20;;;;;;;;;;6159288;23;20009;-84
2021/08/07 11:12:38;;;;;;;0.20;0.20;;;;;;;;;;6159481;23;20013;-84
2021/08/07 11:15:08;;;;;;;0.20;0.20;;;;;;;;;;6159337;23;20045;-84
2021/08/07 11:17:35;;;;;;;0.20;0.20;;;;;;;;;;6159072;23;20020;-84
2021/08/07 11:20:04;;;;;;;0.10;0.10;;;;;;;;;;6159188;23;20009;-84
2021/08/07 11:22:40;;;;;;;0.20;0.20;;;;;;;;;;6183281;23;20012;-85
2021/08/07 11:25:10;;;;;;;0.20;0.20;;;;;;;;;;6195286;23;20455;-84
2021/08/07 11:27:45;;;;;;;0.20;0.20;;;;;;;;;;6159168;23;20076;-84
2021/08/07 11:30:17;;;;;;;0.20;0.20;;;;;;;;;;6185274;23;20013;-84
2021/08/07 11:32:44;;;;;;;0.20;0.20;;;;;;;;;;6195211;23;20079;-88
2021/08/07 11:35:10;;;;;;;0.10;0.10;;;;;;;;;;6158919;23;20537;-85
2021/08/07 11:37:36;;;;;;;0.20;0.20;;;;;;;;;;6159008;23;20017;-86
2021/08/07 11:40:05;;;;;;;0.20;0.20;;;;;;;;;;6159131;23;20066;-85
2021/08/07 11:42:44;;;;;;;0.20;0.20;;;;;;;;;;6183834;23;20462;-86
2021/08/07 11:45:10;;;;;;;0.20;0.20;;;;;;;;;;6159189;23;20020;-87
2021/08/07 11:47:43;;;;;;;0.20;0.20;;;;;;;;;;6159135;23;20014;-90
2021/08/07 11:50:09;;;;;;;0.20;0.20;;;;;;;;;;6159348;23;20019;-86
2021/08/07 11:52:35;;;;;;;0.20;0.20;;;;;;;;;;6184107;23;20521;-86
2021/08/07 11:55:02;;;;;;;0.10;0.10;;;;;;;;;;6159431;23;20043;-87
2021/08/07 11:57:28;;;;;;;0.10;0.10;;;;;;;;;;6159341;23;20017;-86
2021/08/07 11:59:54;;;;;;;0.10;0.10;;;;;;;;;;6185412;23;20039;-86
2021/08/07 12:02:20;;;;;;;0.20;0.20;;;;;;;;;;6157908;23;20071;-87
2021/08/07 12:04:46;;;;;;;0.10;0.10;;;;;;;;;;6159309;23;20009;-87
2021/08/07 12:07:14;;;;;;;0.20;0.20;;;;;;;;;;6157781;23;20020;-85
2021/08/07 12:10:13;;;;;;;0.20;0.20;;;;;;;;;;6159136;23;20017;-87
2021/08/07 12:12:45;;;;;;;0.10;0.10;;;;;;;;;;6167702;23;20021;-86
2021/08/07 12:15:11;;;;;;;;;;;;;;;;;;6184089;23;20443;-86
2021/08/07 12:17:44;;;;;;;0.10;0.10;;;;;;;;;;6185067;23;19920;-85
2021/08/07 12:20:12;;;;;;;2.78;0.30;;;;;;;;;;6183518;23;20024;-85
2021/08/07 12:22:57;;;;;;;0.10;0.10;;;;;;;;;;6183449;23;20299;-85
2021/08/07 12:25:23;;;;;;;0.20;0.20;;;;;;;;;;6184903;23;20009;-86
2021/08/07 12:28:02;;;;;;;0.13;0.13;;;;;;;;;;6158783;23;20041;-85
2021/08/07 12:30:28;;;;;;;0.20;0.20;;;;;;;;;;6134074;23;20106;-86
2021/08/07 12:33:13;;;;;;;0.20;0.20;;;;;;;;;;6184895;23;20447;-85
2021/08/07 12:35:39;;;;;;;0.10;0.10;;;;;;;;;;6198808;23;20077;-85
2021/08/07 12:38:10;;;;;;;0.30;0.30;;;;;;;;;;6188725;23;20016;-86
2021/08/07 12:40:36;;;;;;;0.20;0.20;;;;;;;;;;6224870;23;20009;-86
2021/08/07 12:43:02;;;;;;;0.20;0.20;;;;;;;;;;6188340;23;20099;-85
2021/08/07 12:45:28;;;;;;;0.20;0.20;;;;;;;;;;6188134;23;20040;-84
2021/08/07 12:47:58;;;;;;;0.20;0.20;;;;;;;;;;6213887;23;20016;-85
2021/08/07 12:50:25;;;;;;;0.20;0.20;;;;;;;;;;6213423;23;20015;-85
2021/08/07 12:52:55;;;;;;;0.20;0.20;;;;;;;;;;6188781;23;20028;-87
2021/08/07 12:55:21;;;;;;;0.20;0.20;;;;;;;;;;6214646;23;20020;-86
2021/08/07 12:57:47;;;;;;;0.20;0.20;;;;;;;;;;6187930;23;20017;-86
2021/08/07 13:00:14;;;;;;;0.20;0.20;;;;;;;;;;6214446;23;20013;-86
2021/08/07 13:02:40;;;;;;;0.20;0.20;;;;;;;;;;6214049;23;20016;-86
2021/08/07 13:05:06;;;;;;;0.20;0.20;;;;;;;;;;6187420;23;20028;-86
2021/08/07 13:07:34;;;;;;;0.20;0.20;;;;;;;;;;6187606;23;20446;-86
2021/08/07 13:10:19;;;;;;;0.20;0.20;;;;;;;;;;6188012;23;20018;-87
2021/08/07 13:12:45;;;;;;;0.10;0.10;;;;;;;;;;6214311;23;20509;-86
2021/08/07 13:15:11;;;;;;;0.20;0.20;;;;;;;;;;6188114;23;20508;-85
2021/08/07 13:17:38;;;;;;;0.10;0.10;;;;;;;;;;6214272;23;20047;-86
2021/08/07 13:20:04;;;;;;;0.20;0.20;;;;;;;;;;6188122;23;20013;-86
2021/08/07 13:22:30;;;;;;;0.20;0.20;;;;;;;;;;6212522;23;20012;-86
2021/08/07 13:24:57;;;;;;;0.10;0.10;;;;;;;;;;6214332;23;20457;-86
2021/08/07 13:27:39;;;;;;;0.20;0.20;;;;;;;;;;6187453;23;20378;-85
2021/08/07 13:30:07;;;;;;;0.20;0.20;;;;;;;;;;6187942;23;20082;-87
2021/08/07 13:32:33;;;;;;;0.20;0.20;;;;;;;;;;6214283;23;20008;-87
2021/08/07 13:34:59;;;;;;;0.20;0.20;;;;;;;;;;6187651;23;20450;-86
2021/08/07 13:37:25;;;;;;;0.20;0.20;;;;;;;;;;6187667;23;20516;-86
2021/08/07 13:39:51;;;;;;;0.20;0.20;;;;;;;;;;6214143;23;20009;-87
2021/08/07 13:42:21;;;;;;;0.13;0.13;;;;;;;;;;6188247;23;20103;-87
2021/08/07 13:44:47;;;;;;;0.20;0.20;;;;;;;;;;6213972;23;20009;-87
2021/08/07 13:47:13;;;;;;;0.10;0.10;;;;;;;;;;6187520;23;20013;-86
2021/08/07 13:49:39;;;;;;;0.10;0.10;;;;;;;;;;6187886;23;20013;-87
2021/08/07 13:52:05;;;;;;;0.30;0.30;;;;;;;;;;6184675;23;20013;-86
2021/08/07 13:54:31;;;;;;;0.10;0.10;;;;;;;;;;6187490;23;20044;-85
2021/08/07 13:56:57;;;;;;;0.30;0.30;;;;;;;;;;6187939;23;20019;-85
2021/08/07 13:59:23;;;;;;;0.10;0.10;;;;;;;;;;6187821;23;20312;-88
2021/08/07 14:01:49;;;;;;;0.20;0.20;;;;;;;;;;6188169;23;20439;-88
2021/08/07 14:04:15;;;;;;;0.10;0.10;;;;;;;;;;6187396;23;20028;-87
2021/08/07 14:06:41;;;;;;;0.20;0.20;;;;;;;;;;6187589;23;20091;-87
2021/08/07 14:09:09;;;;;;;0.10;0.10;;;;;;;;;;6187775;23;20016;-87
2021/08/07 14:11:35;;;;;;;0.10;0.10;;;;;;;;;;6187684;23;20013;-87
2021/08/07 14:14:01;;;;;;;0.20;0.20;;;;;;;;;;6187650;23;20067;-88
2021/08/07 14:16:27;;;;;;;0.20;0.20;;;;;;;;;;6187202;23;20021;-87
2021/08/07 14:18:53;;;;;;;0.20;0.20;;;;;;;;;;6187161;23;20378;-86
2021/08/07 14:21:19;;;;;;;0.20;0.20;;;;;;;;;;6214296;23;20012;-87
2021/08/07 14:23:45;;;;;;;0.20;0.20;;;;;;;;;;6187218;23;20440;-87
2021/08/07 14:26:11;;;;;;;0.20;0.20;;;;;;;;;;6187597;23;20009;-87
2021/08/07 14:28:37;;;;;;;0.13;0.13;;;;;;;;;;6187609;23;20016;-87
2021/08/07 14:31:03;;;;;;;0.10;0.10;;;;;;;;;;6187119;23;20021;-87
2021/08/07 14:33:29;;;;;;;0.20;0.20;;;;;;;;;;6187583;23;20009;-87
2021/08/07 14:35:56;;;;;;;0.20;0.20;;;;;;;;;;6187315;23;20013;-87
2021/08/07 14:38:22;;;;;;;0.10;0.10;;;;;;;;;;6187513;23;20047;-87
2021/08/07 14:40:48;;;;;;;0.10;0.10;;;;;;;;;;6187757;23;20013;-87
2021/08/07 14:43:14;;;;;;;0.10;0.10;;;;;;;;;;6187417;23;20074;-86